sensor_id;sensor_type;location;lat;lon;timestamp;P1;durP1;ratioP1;P2;durP2;ratioP2
73454;SDS011;61690;51.824;6.306;2023-12-22T00:01:11;8.73;;;3.33;;
73454;SDS011;61690;51.824;6.306;2023-12-22T00:03:40;8.27;;;3.70;;
73454;SDS011;61690;51.824;6.306;2023-12-22T00:06:10;9.68;;;3.85;;
73454;SDS011;61690;51.824;6.306;2023-12-22T00:08:36;7.37;;;3.53;;
73454;SDS011;61690;51.824;6.306;2023-12-22T00:11:02;8.00;;;4.10;;
73454;SDS011;61690;51.824;6.306;2023-12-22T00:13:27;8.57;;;4.15;;
73454;SDS011;61690;51.824;6.306;2023-12-22T00:15:52;6.70;;;3.27;;
73454;SDS011;61690;51.824;6.306;2023-12-22T00:18:18;8.63;;;3.70;;
73454;SDS011;61690;51.824;6.306;2023-12-22T00:20:43;9.67;;;3.50;;
73454;SDS011;61690;51.824;6.306;2023-12-22T00:23:08;7.17;;;3.50;;
73454;SDS011;61690;51.824;6.306;2023-12-22T00:25:34;7.43;;;3.07;;
73454;SDS011;61690;51.824;6.306;2023-12-22T00:27:59;7.53;;;3.47;;
73454;SDS011;61690;51.824;6.306;2023-12-22T00:30:24;7.97;;;3.30;;
73454;SDS011;61690;51.824;6.306;2023-12-22T00:32:50;10.00;;;3.83;;
73454;SDS011;61690;51.824;6.306;2023-12-22T00:35:15;7.40;;;2.97;;
73454;SDS011;61690;51.824;6.306;2023-12-22T00:37:40;7.87;;;3.30;;
73454;SDS011;61690;51.824;6.306;2023-12-22T00:40:06;8.07;;;3.17;;
73454;SDS011;61690;51.824;6.306;2023-12-22T00:42:33;7.45;;;3.10;;
73454;SDS011;61690;51.824;6.306;2023-12-22T00:44:58;6.90;;;3.13;;
73454;SDS011;61690;51.824;6.306;2023-12-22T00:47:23;7.17;;;3.63;;
73454;SDS011;61690;51.824;6.306;2023-12-22T00:49:48;7.20;;;3.63;;
73454;SDS011;61690;51.824;6.306;2023-12-22T00:52:14;8.07;;;3.60;;
73454;SDS011;61690;51.824;6.306;2023-12-22T00:54:39;6.85;;;3.00;;
73454;SDS011;61690;51.824;6.306;2023-12-22T00:57:04;8.13;;;3.30;;
73454;SDS011;61690;51.824;6.306;2023-12-22T00:59:30;6.90;;;3.17;;
73454;SDS011;61690;51.824;6.306;2023-12-22T01:01:55;7.33;;;3.30;;
73454;SDS011;61690;51.824;6.306;2023-12-22T01:04:20;7.67;;;3.23;;
73454;SDS011;61690;51.824;6.306;2023-12-22T01:06:46;7.50;;;3.10;;
73454;SDS011;61690;51.824;6.306;2023-12-22T01:09:11;6.70;;;3.13;;
73454;SDS011;61690;51.824;6.306;2023-12-22T01:11:36;8.50;;;3.10;;
73454;SDS011;61690;51.824;6.306;2023-12-22T01:14:02;7.13;;;3.10;;
73454;SDS011;61690;51.824;6.306;2023-12-22T01:16:27;7.03;;;2.90;;
73454;SDS011;61690;51.824;6.306;2023-12-22T01:18:52;6.63;;;3.03;;
73454;SDS011;61690;51.824;6.306;2023-12-22T01:21:18;7.03;;;3.07;;
73454;SDS011;61690;51.824;6.306;2023-12-22T01:23:43;7.77;;;3.23;;
73454;SDS011;61690;51.824;6.306;2023-12-22T01:26:08;7.37;;;2.80;;
73454;SDS011;61690;51.824;6.306;2023-12-22T01:28:34;7.37;;;2.90;;
73454;SDS011;61690;51.824;6.306;2023-12-22T01:31:00;8.77;;;3.47;;
73454;SDS011;61690;51.824;6.306;2023-12-22T01:33:25;7.60;;;3.30;;
73454;SDS011;61690;51.824;6.306;2023-12-22T01:35:51;7.93;;;3.50;;
73454;SDS011;61690;51.824;6.306;2023-12-22T01:38:16;7.20;;;3.07;;
73454;SDS011;61690;51.824;6.306;2023-12-22T01:40:41;6.87;;;2.57;;
73454;SDS011;61690;51.824;6.306;2023-12-22T01:43:07;7.67;;;2.70;;
73454;SDS011;61690;51.824;6.306;2023-12-22T01:45:32;7.40;;;2.83;;
73454;SDS011;61690;51.824;6.306;2023-12-22T01:47:57;6.60;;;2.97;;
73454;SDS011;61690;51.824;6.306;2023-12-22T01:50:23;7.60;;;3.20;;
73454;SDS011;61690;51.824;6.306;2023-12-22T01:52:49;6.27;;;2.70;;
73454;SDS011;61690;51.824;6.306;2023-12-22T01:55:14;6.95;;;2.75;;
73454;SDS011;61690;51.824;6.306;2023-12-22T01:57:42;6.38;;;2.90;;
73454;SDS011;61690;51.824;6.306;2023-12-22T02:00:09;6.93;;;2.80;;
73454;SDS011;61690;51.824;6.306;2023-12-22T02:02:35;6.75;;;2.78;;
73454;SDS011;61690;51.824;6.306;2023-12-22T02:05:00;5.80;;;2.45;;
73454;SDS011;61690;51.824;6.306;2023-12-22T02:07:26;6.93;;;2.50;;
73454;SDS011;61690;51.824;6.306;2023-12-22T02:09:52;6.20;;;2.33;;
73454;SDS011;61690;51.824;6.306;2023-12-22T02:12:17;6.90;;;2.67;;
73454;SDS011;61690;51.824;6.306;2023-12-22T02:14:43;6.53;;;2.67;;
73454;SDS011;61690;51.824;6.306;2023-12-22T02:17:26;5.80;;;2.47;;
73454;SDS011;61690;51.824;6.306;2023-12-22T02:19:58;6.17;;;2.93;;
73454;SDS011;61690;51.824;6.306;2023-12-22T02:22:23;6.68;;;2.70;;
73454;SDS011;61690;51.824;6.306;2023-12-22T02:24:48;6.70;;;2.17;;
73454;SDS011;61690;51.824;6.306;2023-12-22T02:27:15;7.03;;;2.90;;
73454;SDS011;61690;51.824;6.306;2023-12-22T02:30:09;6.18;;;2.53;;
73454;SDS011;61690;51.824;6.306;2023-12-22T02:32:37;6.77;;;2.40;;
73454;SDS011;61690;51.824;6.306;2023-12-22T02:35:10;7.00;;;2.70;;
73454;SDS011;61690;51.824;6.306;2023-12-22T02:37:39;8.25;;;2.70;;
73454;SDS011;61690;51.824;6.306;2023-12-22T02:40:06;6.82;;;2.40;;
73454;SDS011;61690;51.824;6.306;2023-12-22T02:42:33;7.05;;;2.60;;
73454;SDS011;61690;51.824;6.306;2023-12-22T02:44:59;6.70;;;2.50;;
73454;SDS011;61690;51.824;6.306;2023-12-22T02:47:25;6.40;;;2.60;;
73454;SDS011;61690;51.824;6.306;2023-12-22T02:49:53;6.03;;;2.30;;
73454;SDS011;61690;51.824;6.306;2023-12-22T02:52:19;6.68;;;2.45;;
73454;SDS011;61690;51.824;6.306;2023-12-22T02:54:44;6.80;;;2.50;;
73454;SDS011;61690;51.824;6.306;2023-12-22T02:57:09;6.13;;;2.50;;
73454;SDS011;61690;51.824;6.306;2023-12-22T02:59:36;6.83;;;2.67;;
73454;SDS011;61690;51.824;6.306;2023-12-22T03:02:02;6.40;;;2.67;;
73454;SDS011;61690;51.824;6.306;2023-12-22T03:04:27;6.50;;;2.47;;
73454;SDS011;61690;51.824;6.306;2023-12-22T03:06:52;6.47;;;2.60;;
73454;SDS011;61690;51.824;6.306;2023-12-22T03:09:18;6.00;;;2.53;;
73454;SDS011;61690;51.824;6.306;2023-12-22T03:11:43;5.80;;;2.20;;
73454;SDS011;61690;51.824;6.306;2023-12-22T03:14:09;7.23;;;2.83;;
73454;SDS011;61690;51.824;6.306;2023-12-22T03:16:35;6.32;;;2.70;;
73454;SDS011;61690;51.824;6.306;2023-12-22T03:19:00;6.57;;;2.73;;
73454;SDS011;61690;51.824;6.306;2023-12-22T03:21:25;6.30;;;2.60;;
73454;SDS011;61690;51.824;6.306;2023-12-22T03:23:51;5.88;;;2.45;;
73454;SDS011;61690;51.824;6.306;2023-12-22T03:26:16;6.23;;;2.73;;
73454;SDS011;61690;51.824;6.306;2023-12-22T03:28:41;6.10;;;2.50;;
73454;SDS011;61690;51.824;6.306;2023-12-22T03:31:06;6.57;;;2.50;;
73454;SDS011;61690;51.824;6.306;2023-12-22T03:33:32;6.50;;;2.10;;
73454;SDS011;61690;51.824;6.306;2023-12-22T03:35:58;6.32;;;2.63;;
73454;SDS011;61690;51.824;6.306;2023-12-22T03:38:23;6.40;;;2.60;;
73454;SDS011;61690;51.824;6.306;2023-12-22T03:40:48;5.83;;;2.30;;
73454;SDS011;61690;51.824;6.306;2023-12-22T03:43:14;7.00;;;2.43;;
73454;SDS011;61690;51.824;6.306;2023-12-22T03:45:39;5.50;;;2.03;;
73454;SDS011;61690;51.824;6.306;2023-12-22T03:48:04;8.03;;;2.33;;
73454;SDS011;61690;51.824;6.306;2023-12-22T03:50:30;6.40;;;2.40;;
73454;SDS011;61690;51.824;6.306;2023-12-22T03:52:55;6.40;;;2.17;;
73454;SDS011;61690;51.824;6.306;2023-12-22T03:55:21;6.55;;;2.40;;
73454;SDS011;61690;51.824;6.306;2023-12-22T03:57:46;6.20;;;2.80;;
73454;SDS011;61690;51.824;6.306;2023-12-22T04:00:12;6.07;;;2.27;;
73454;SDS011;61690;51.824;6.306;2023-12-22T04:02:38;6.25;;;2.72;;
73454;SDS011;61690;51.824;6.306;2023-12-22T04:05:04;5.93;;;2.27;;
73454;SDS011;61690;51.824;6.306;2023-12-22T04:07:30;6.53;;;2.60;;
73454;SDS011;61690;51.824;6.306;2023-12-22T04:09:55;5.73;;;2.40;;
73454;SDS011;61690;51.824;6.306;2023-12-22T04:12:21;5.87;;;2.40;;
73454;SDS011;61690;51.824;6.306;2023-12-22T04:14:46;5.00;;;2.03;;
73454;SDS011;61690;51.824;6.306;2023-12-22T04:17:11;5.77;;;2.10;;
73454;SDS011;61690;51.824;6.306;2023-12-22T04:19:36;5.33;;;2.10;;
73454;SDS011;61690;51.824;6.306;2023-12-22T04:22:02;5.40;;;2.10;;
73454;SDS011;61690;51.824;6.306;2023-12-22T04:24:27;4.70;;;2.00;;
73454;SDS011;61690;51.824;6.306;2023-12-22T04:26:53;5.20;;;2.10;;
73454;SDS011;61690;51.824;6.306;2023-12-22T04:29:18;4.97;;;2.13;;
73454;SDS011;61690;51.824;6.306;2023-12-22T04:31:43;5.50;;;1.97;;
73454;SDS011;61690;51.824;6.306;2023-12-22T04:34:09;5.25;;;1.95;;
73454;SDS011;61690;51.824;6.306;2023-12-22T04:36:35;4.80;;;1.80;;
73454;SDS011;61690;51.824;6.306;2023-12-22T04:39:00;5.47;;;2.20;;
73454;SDS011;61690;51.824;6.306;2023-12-22T04:41:26;6.10;;;2.33;;
73454;SDS011;61690;51.824;6.306;2023-12-22T04:43:51;6.27;;;2.50;;
73454;SDS011;61690;51.824;6.306;2023-12-22T04:46:16;5.20;;;2.07;;
73454;SDS011;61690;51.824;6.306;2023-12-22T04:48:41;4.93;;;1.77;;
73454;SDS011;61690;51.824;6.306;2023-12-22T04:51:07;5.53;;;2.17;;
73454;SDS011;61690;51.824;6.306;2023-12-22T04:53:32;4.93;;;1.60;;
73454;SDS011;61690;51.824;6.306;2023-12-22T04:55:57;5.30;;;1.90;;
73454;SDS011;61690;51.824;6.306;2023-12-22T04:58:23;5.23;;;1.80;;
73454;SDS011;61690;51.824;6.306;2023-12-22T05:00:49;4.90;;;1.80;;
73454;SDS011;61690;51.824;6.306;2023-12-22T05:03:14;4.80;;;2.20;;
73454;SDS011;61690;51.824;6.306;2023-12-22T05:05:39;5.20;;;2.30;;
73454;SDS011;61690;51.824;6.306;2023-12-22T05:08:05;4.97;;;1.80;;
73454;SDS011;61690;51.824;6.306;2023-12-22T05:10:30;4.70;;;1.90;;
73454;SDS011;61690;51.824;6.306;2023-12-22T05:12:56;5.13;;;1.93;;
73454;SDS011;61690;51.824;6.306;2023-12-22T05:15:21;4.80;;;1.90;;
73454;SDS011;61690;51.824;6.306;2023-12-22T05:17:46;4.60;;;1.80;;
73454;SDS011;61690;51.824;6.306;2023-12-22T05:20:11;5.40;;;2.20;;
73454;SDS011;61690;51.824;6.306;2023-12-22T05:22:37;5.57;;;2.27;;
73454;SDS011;61690;51.824;6.306;2023-12-22T05:25:02;5.00;;;1.93;;
73454;SDS011;61690;51.824;6.306;2023-12-22T05:27:28;5.20;;;1.97;;
73454;SDS011;61690;51.824;6.306;2023-12-22T05:29:53;4.87;;;1.90;;
73454;SDS011;61690;51.824;6.306;2023-12-22T05:32:18;4.97;;;1.83;;
73454;SDS011;61690;51.824;6.306;2023-12-22T05:34:43;4.90;;;2.00;;
73454;SDS011;61690;51.824;6.306;2023-12-22T05:37:09;5.07;;;2.00;;
73454;SDS011;61690;51.824;6.306;2023-12-22T05:39:34;4.50;;;1.80;;
73454;SDS011;61690;51.824;6.306;2023-12-22T05:41:59;5.27;;;2.03;;
73454;SDS011;61690;51.824;6.306;2023-12-22T05:44:24;5.07;;;1.70;;
73454;SDS011;61690;51.824;6.306;2023-12-22T05:46:54;4.18;;;1.73;;
73454;SDS011;61690;51.824;6.306;2023-12-22T05:49:19;4.70;;;1.75;;
73454;SDS011;61690;51.824;6.306;2023-12-22T05:51:45;5.13;;;2.20;;
73454;SDS011;61690;51.824;6.306;2023-12-22T05:54:11;4.80;;;1.83;;
73454;SDS011;61690;51.824;6.306;2023-12-22T05:56:37;4.72;;;1.83;;
73454;SDS011;61690;51.824;6.306;2023-12-22T05:59:02;4.53;;;1.87;;
73454;SDS011;61690;51.824;6.306;2023-12-22T06:01:28;5.27;;;1.93;;
73454;SDS011;61690;51.824;6.306;2023-12-22T06:03:53;5.10;;;1.90;;
73454;SDS011;61690;51.824;6.306;2023-12-22T06:06:19;4.38;;;1.63;;
73454;SDS011;61690;51.824;6.306;2023-12-22T06:08:45;5.00;;;1.83;;
73454;SDS011;61690;51.824;6.306;2023-12-22T06:11:10;5.10;;;1.83;;
73454;SDS011;61690;51.824;6.306;2023-12-22T06:13:35;4.50;;;1.80;;
73454;SDS011;61690;51.824;6.306;2023-12-22T06:16:01;5.37;;;2.10;;
73454;SDS011;61690;51.824;6.306;2023-12-22T06:18:26;4.80;;;1.87;;
73454;SDS011;61690;51.824;6.306;2023-12-22T06:20:52;4.70;;;1.88;;
73454;SDS011;61690;51.824;6.306;2023-12-22T06:23:17;5.27;;;1.97;;
73454;SDS011;61690;51.824;6.306;2023-12-22T06:25:43;5.53;;;1.70;;
73454;SDS011;61690;51.824;6.306;2023-12-22T06:28:08;4.43;;;1.60;;
73454;SDS011;61690;51.824;6.306;2023-12-22T06:30:34;5.00;;;1.50;;
73454;SDS011;61690;51.824;6.306;2023-12-22T06:32:59;4.70;;;1.80;;
73454;SDS011;61690;51.824;6.306;2023-12-22T06:35:24;4.97;;;1.77;;
73454;SDS011;61690;51.824;6.306;2023-12-22T06:37:50;4.82;;;1.50;;
73454;SDS011;61690;51.824;6.306;2023-12-22T06:40:16;4.77;;;1.67;;
73454;SDS011;61690;51.824;6.306;2023-12-22T06:42:42;4.57;;;1.70;;
73454;SDS011;61690;51.824;6.306;2023-12-22T06:45:07;4.60;;;1.80;;
73454;SDS011;61690;51.824;6.306;2023-12-22T06:47:33;4.27;;;1.60;;
73454;SDS011;61690;51.824;6.306;2023-12-22T06:49:58;4.50;;;1.70;;
73454;SDS011;61690;51.824;6.306;2023-12-22T06:52:23;4.47;;;1.50;;
73454;SDS011;61690;51.824;6.306;2023-12-22T06:54:49;4.87;;;1.90;;
73454;SDS011;61690;51.824;6.306;2023-12-22T06:57:14;4.90;;;1.50;;
73454;SDS011;61690;51.824;6.306;2023-12-22T06:59:39;4.63;;;1.90;;
73454;SDS011;61690;51.824;6.306;2023-12-22T07:02:05;5.20;;;1.90;;
73454;SDS011;61690;51.824;6.306;2023-12-22T07:04:31;4.63;;;1.50;;
73454;SDS011;61690;51.824;6.306;2023-12-22T07:06:56;4.90;;;1.53;;
73454;SDS011;61690;51.824;6.306;2023-12-22T07:11:50;4.83;;;1.63;;
73454;SDS011;61690;51.824;6.306;2023-12-22T07:14:17;4.50;;;1.70;;
73454;SDS011;61690;51.824;6.306;2023-12-22T07:16:43;5.23;;;2.20;;
73454;SDS011;61690;51.824;6.306;2023-12-22T07:19:08;5.07;;;1.67;;
73454;SDS011;61690;51.824;6.306;2023-12-22T07:21:34;5.15;;;1.83;;
73454;SDS011;61690;51.824;6.306;2023-12-22T07:24:00;5.40;;;1.83;;
73454;SDS011;61690;51.824;6.306;2023-12-22T07:26:26;4.63;;;1.63;;
73454;SDS011;61690;51.824;6.306;2023-12-22T07:28:54;4.85;;;1.65;;
73454;SDS011;61690;51.824;6.306;2023-12-22T07:31:19;4.93;;;2.00;;
73454;SDS011;61690;51.824;6.306;2023-12-22T07:33:45;5.30;;;1.60;;
73454;SDS011;61690;51.824;6.306;2023-12-22T07:36:10;5.17;;;1.70;;
73454;SDS011;61690;51.824;6.306;2023-12-22T07:38:36;4.77;;;1.50;;
73454;SDS011;61690;51.824;6.306;2023-12-22T07:41:01;4.70;;;1.70;;
73454;SDS011;61690;51.824;6.306;2023-12-22T07:43:26;4.57;;;1.67;;
73454;SDS011;61690;51.824;6.306;2023-12-22T07:45:54;4.87;;;1.90;;
73454;SDS011;61690;51.824;6.306;2023-12-22T07:48:19;4.93;;;1.70;;
73454;SDS011;61690;51.824;6.306;2023-12-22T07:50:45;5.00;;;1.47;;
73454;SDS011;61690;51.824;6.306;2023-12-22T07:53:10;5.57;;;1.80;;
73454;SDS011;61690;51.824;6.306;2023-12-22T07:55:36;4.70;;;1.70;;
73454;SDS011;61690;51.824;6.306;2023-12-22T07:58:03;4.50;;;1.42;;
73454;SDS011;61690;51.824;6.306;2023-12-22T08:00:29;4.30;;;1.50;;
73454;SDS011;61690;51.824;6.306;2023-12-22T08:02:54;5.03;;;1.30;;
73454;SDS011;61690;51.824;6.306;2023-12-22T08:05:19;5.17;;;1.70;;
73454;SDS011;61690;51.824;6.306;2023-12-22T08:07:45;4.97;;;1.70;;
73454;SDS011;61690;51.824;6.306;2023-12-22T08:10:10;4.40;;;1.30;;
73454;SDS011;61690;51.824;6.306;2023-12-22T08:12:35;5.60;;;1.57;;
73454;SDS011;61690;51.824;6.306;2023-12-22T08:15:01;4.40;;;1.40;;
73454;SDS011;61690;51.824;6.306;2023-12-22T08:17:27;6.03;;;1.67;;
73454;SDS011;61690;51.824;6.306;2023-12-22T08:19:52;4.60;;;1.40;;
73454;SDS011;61690;51.824;6.306;2023-12-22T08:22:18;4.90;;;1.50;;
73454;SDS011;61690;51.824;6.306;2023-12-22T08:24:43;5.07;;;1.50;;
73454;SDS011;61690;51.824;6.306;2023-12-22T08:27:08;4.40;;;1.40;;
73454;SDS011;61690;51.824;6.306;2023-12-22T08:29:34;5.33;;;1.37;;
73454;SDS011;61690;51.824;6.306;2023-12-22T08:32:00;4.50;;;1.35;;
73454;SDS011;61690;51.824;6.306;2023-12-22T08:34:26;5.40;;;1.30;;
73454;SDS011;61690;51.824;6.306;2023-12-22T08:36:52;4.93;;;1.50;;
73454;SDS011;61690;51.824;6.306;2023-12-22T08:39:17;4.60;;;1.27;;
73454;SDS011;61690;51.824;6.306;2023-12-22T08:41:42;5.13;;;1.70;;
73454;SDS011;61690;51.824;6.306;2023-12-22T08:44:08;5.63;;;1.40;;
73454;SDS011;61690;51.824;6.306;2023-12-22T08:46:34;4.67;;;1.57;;
73454;SDS011;61690;51.824;6.306;2023-12-22T08:48:59;4.55;;;1.50;;
73454;SDS011;61690;51.824;6.306;2023-12-22T08:51:25;4.93;;;1.60;;
73454;SDS011;61690;51.824;6.306;2023-12-22T08:53:51;3.90;;;1.30;;
73454;SDS011;61690;51.824;6.306;2023-12-22T08:56:17;6.93;;;1.60;;
73454;SDS011;61690;51.824;6.306;2023-12-22T08:58:42;5.50;;;1.50;;
73454;SDS011;61690;51.824;6.306;2023-12-22T09:01:13;6.10;;;1.63;;
73454;SDS011;61690;51.824;6.306;2023-12-22T09:03:40;4.72;;;1.45;;
73454;SDS011;61690;51.824;6.306;2023-12-22T09:06:09;5.15;;;1.35;;
73454;SDS011;61690;51.824;6.306;2023-12-22T09:08:35;6.03;;;1.30;;
73454;SDS011;61690;51.824;6.306;2023-12-22T09:11:00;6.20;;;1.37;;
73454;SDS011;61690;51.824;6.306;2023-12-22T09:13:26;6.13;;;1.80;;
73454;SDS011;61690;51.824;6.306;2023-12-22T09:15:51;4.30;;;1.20;;
73454;SDS011;61690;51.824;6.306;2023-12-22T09:18:16;6.17;;;1.50;;
73454;SDS011;61690;51.824;6.306;2023-12-22T09:20:41;5.10;;;1.30;;
73454;SDS011;61690;51.824;6.306;2023-12-22T09:23:07;6.53;;;1.60;;
73454;SDS011;61690;51.824;6.306;2023-12-22T09:25:34;5.90;;;1.45;;
73454;SDS011;61690;51.824;6.306;2023-12-22T09:28:00;6.37;;;1.20;;
73454;SDS011;61690;51.824;6.306;2023-12-22T09:30:25;4.57;;;1.20;;
73454;SDS011;61690;51.824;6.306;2023-12-22T09:32:50;5.40;;;1.50;;
73454;SDS011;61690;51.824;6.306;2023-12-22T09:35:16;5.53;;;1.30;;
73454;SDS011;61690;51.824;6.306;2023-12-22T09:37:42;6.25;;;1.63;;
73454;SDS011;61690;51.824;6.306;2023-12-22T09:40:07;5.30;;;1.63;;
73454;SDS011;61690;51.824;6.306;2023-12-22T09:42:35;4.80;;;1.27;;
73454;SDS011;61690;51.824;6.306;2023-12-22T09:45:05;4.88;;;1.60;;
73454;SDS011;61690;51.824;6.306;2023-12-22T09:47:35;6.23;;;1.50;;
73454;SDS011;61690;51.824;6.306;2023-12-22T09:50:02;5.13;;;1.80;;
73454;SDS011;61690;51.824;6.306;2023-12-22T09:52:27;6.23;;;1.80;;
73454;SDS011;61690;51.824;6.306;2023-12-22T09:54:54;6.83;;;1.53;;
73454;SDS011;61690;51.824;6.306;2023-12-22T09:57:22;5.85;;;1.70;;
73454;SDS011;61690;51.824;6.306;2023-12-22T09:59:49;6.75;;;1.95;;
73454;SDS011;61690;51.824;6.306;2023-12-22T10:02:16;6.47;;;1.40;;
73454;SDS011;61690;51.824;6.306;2023-12-22T10:04:42;6.13;;;1.70;;
73454;SDS011;61690;51.824;6.306;2023-12-22T10:07:07;7.50;;;1.90;;
73454;SDS011;61690;51.824;6.306;2023-12-22T10:09:35;7.13;;;1.70;;
73454;SDS011;61690;51.824;6.306;2023-12-22T10:12:01;7.18;;;1.80;;
73454;SDS011;61690;51.824;6.306;2023-12-22T10:14:29;6.03;;;1.50;;
73454;SDS011;61690;51.824;6.306;2023-12-22T10:16:55;7.07;;;2.00;;
73454;SDS011;61690;51.824;6.306;2023-12-22T10:19:21;8.50;;;2.03;;
73454;SDS011;61690;51.824;6.306;2023-12-22T10:21:47;6.03;;;1.97;;
73454;SDS011;61690;51.824;6.306;2023-12-22T10:27:01;7.53;;;1.58;;
73454;SDS011;61690;51.824;6.306;2023-12-22T10:29:27;6.43;;;1.60;;
73454;SDS011;61690;51.824;6.306;2023-12-22T10:31:52;8.10;;;1.73;;
73454;SDS011;61690;51.824;6.306;2023-12-22T10:34:17;6.10;;;1.63;;
73454;SDS011;61690;51.824;6.306;2023-12-22T10:36:43;9.83;;;2.33;;
73454;SDS011;61690;51.824;6.306;2023-12-22T10:39:08;9.43;;;1.77;;
73454;SDS011;61690;51.824;6.306;2023-12-22T10:41:34;10.98;;;2.25;;
73454;SDS011;61690;51.824;6.306;2023-12-22T10:44:00;12.50;;;2.53;;
73454;SDS011;61690;51.824;6.306;2023-12-22T10:46:25;8.38;;;2.10;;
73454;SDS011;61690;51.824;6.306;2023-12-22T10:48:52;9.57;;;2.30;;
73454;SDS011;61690;51.824;6.306;2023-12-22T10:51:18;12.60;;;2.55;;
73454;SDS011;61690;51.824;6.306;2023-12-22T10:53:43;13.33;;;2.30;;
73454;SDS011;61690;51.824;6.306;2023-12-22T10:56:08;10.87;;;2.17;;
73454;SDS011;61690;51.824;6.306;2023-12-22T10:58:35;9.85;;;1.80;;
73454;SDS011;61690;51.824;6.306;2023-12-22T11:01:00;8.75;;;2.05;;
73454;SDS011;61690;51.824;6.306;2023-12-22T11:03:27;9.77;;;2.10;;
73454;SDS011;61690;51.824;6.306;2023-12-22T11:05:58;9.75;;;2.03;;
73454;SDS011;61690;51.824;6.306;2023-12-22T11:08:27;8.43;;;2.00;;
73454;SDS011;61690;51.824;6.306;2023-12-22T11:10:55;10.43;;;2.03;;
73454;SDS011;61690;51.824;6.306;2023-12-22T11:13:23;11.35;;;2.05;;
73454;SDS011;61690;51.824;6.306;2023-12-22T11:15:49;16.80;;;1.90;;
73454;SDS011;61690;51.824;6.306;2023-12-22T11:18:16;8.32;;;2.00;;
73454;SDS011;61690;51.824;6.306;2023-12-22T11:20:43;7.67;;;1.80;;
73454;SDS011;61690;51.824;6.306;2023-12-22T11:23:09;10.95;;;2.10;;
73454;SDS011;61690;51.824;6.306;2023-12-22T11:25:36;9.23;;;1.92;;
73454;SDS011;61690;51.824;6.306;2023-12-22T11:28:03;12.15;;;2.22;;
73454;SDS011;61690;51.824;6.306;2023-12-22T11:30:31;9.80;;;2.27;;
73454;SDS011;61690;51.824;6.306;2023-12-22T11:32:56;9.80;;;2.22;;
73454;SDS011;61690;51.824;6.306;2023-12-22T11:35:25;9.90;;;1.87;;
73454;SDS011;61690;51.824;6.306;2023-12-22T11:37:52;8.77;;;1.67;;
73454;SDS011;61690;51.824;6.306;2023-12-22T11:40:18;8.55;;;1.80;;
73454;SDS011;61690;51.824;6.306;2023-12-22T11:42:45;7.77;;;2.00;;
73454;SDS011;61690;51.824;6.306;2023-12-22T11:45:15;8.85;;;2.00;;
73454;SDS011;61690;51.824;6.306;2023-12-22T11:47:42;7.30;;;1.83;;
73454;SDS011;61690;51.824;6.306;2023-12-22T11:50:11;15.07;;;2.20;;
73454;SDS011;61690;51.824;6.306;2023-12-22T11:52:37;7.15;;;1.60;;
73454;SDS011;61690;51.824;6.306;2023-12-22T11:55:04;7.05;;;1.63;;
73454;SDS011;61690;51.824;6.306;2023-12-22T12:03:05;7.63;;;1.85;;
73454;SDS011;61690;51.824;6.306;2023-12-22T12:05:31;9.73;;;1.80;;
73454;SDS011;61690;51.824;6.306;2023-12-22T12:08:05;8.47;;;1.83;;
73454;SDS011;61690;51.824;6.306;2023-12-22T12:13:06;10.10;;;2.07;;
73454;SDS011;61690;51.824;6.306;2023-12-22T12:15:33;6.90;;;1.80;;
73454;SDS011;61690;51.824;6.306;2023-12-22T12:17:59;6.40;;;1.77;;
73454;SDS011;61690;51.824;6.306;2023-12-22T12:20:25;8.65;;;1.80;;
73454;SDS011;61690;51.824;6.306;2023-12-22T12:22:52;8.90;;;1.77;;
73454;SDS011;61690;51.824;6.306;2023-12-22T12:25:21;9.40;;;1.80;;
73454;SDS011;61690;51.824;6.306;2023-12-22T12:27:49;8.32;;;1.50;;
73454;SDS011;61690;51.824;6.306;2023-12-22T12:30:14;7.63;;;1.67;;
73454;SDS011;61690;51.824;6.306;2023-12-22T12:32:41;7.57;;;1.50;;
73454;SDS011;61690;51.824;6.306;2023-12-22T12:35:09;6.47;;;1.33;;
73454;SDS011;61690;51.824;6.306;2023-12-22T12:37:35;7.10;;;1.50;;
73454;SDS011;61690;51.824;6.306;2023-12-22T12:40:02;6.88;;;1.55;;
73454;SDS011;61690;51.824;6.306;2023-12-22T12:42:29;7.45;;;1.70;;
73454;SDS011;61690;51.824;6.306;2023-12-22T12:44:58;7.15;;;1.88;;
73454;SDS011;61690;51.824;6.306;2023-12-22T12:47:24;8.05;;;1.50;;
73454;SDS011;61690;51.824;6.306;2023-12-22T12:50:02;6.60;;;1.87;;
73454;SDS011;61690;51.824;6.306;2023-12-22T12:52:27;6.85;;;1.90;;
73454;SDS011;61690;51.824;6.306;2023-12-22T12:54:53;7.80;;;1.60;;
73454;SDS011;61690;51.824;6.306;2023-12-22T12:57:19;6.88;;;1.88;;
73454;SDS011;61690;51.824;6.306;2023-12-22T12:59:49;7.68;;;1.65;;
73454;SDS011;61690;51.824;6.306;2023-12-22T13:02:18;7.65;;;2.10;;
73454;SDS011;61690;51.824;6.306;2023-12-22T13:04:44;6.43;;;1.57;;
73454;SDS011;61690;51.824;6.306;2023-12-22T13:07:09;6.80;;;1.50;;
73454;SDS011;61690;51.824;6.306;2023-12-22T13:09:37;7.53;;;1.67;;
73454;SDS011;61690;51.824;6.306;2023-12-22T13:12:03;7.07;;;1.55;;
73454;SDS011;61690;51.824;6.306;2023-12-22T13:14:29;6.85;;;1.60;;
73454;SDS011;61690;51.824;6.306;2023-12-22T13:16:55;7.10;;;1.60;;
73454;SDS011;61690;51.824;6.306;2023-12-22T13:19:22;7.37;;;1.60;;
73454;SDS011;61690;51.824;6.306;2023-12-22T13:21:49;7.43;;;1.65;;
73454;SDS011;61690;51.824;6.306;2023-12-22T13:24:15;6.40;;;1.43;;
73454;SDS011;61690;51.824;6.306;2023-12-22T13:26:42;5.90;;;1.40;;
73454;SDS011;61690;51.824;6.306;2023-12-22T13:29:08;6.90;;;1.50;;
73454;SDS011;61690;51.824;6.306;2023-12-22T13:31:41;6.78;;;1.63;;
73454;SDS011;61690;51.824;6.306;2023-12-22T13:34:08;7.07;;;1.75;;
73454;SDS011;61690;51.824;6.306;2023-12-22T13:36:37;6.33;;;1.37;;
73454;SDS011;61690;51.824;6.306;2023-12-22T13:39:04;6.03;;;1.35;;
73454;SDS011;61690;51.824;6.306;2023-12-22T13:41:34;5.88;;;1.60;;
73454;SDS011;61690;51.824;6.306;2023-12-22T13:44:06;8.75;;;1.85;;
73454;SDS011;61690;51.824;6.306;2023-12-22T13:46:32;6.40;;;1.60;;
73454;SDS011;61690;51.824;6.306;2023-12-22T13:49:00;6.37;;;1.67;;
73454;SDS011;61690;51.824;6.306;2023-12-22T13:51:38;5.28;;;1.40;;
73454;SDS011;61690;51.824;6.306;2023-12-22T13:54:04;6.47;;;1.65;;
73454;SDS011;61690;51.824;6.306;2023-12-22T13:56:32;5.53;;;1.33;;
73454;SDS011;61690;51.824;6.306;2023-12-22T13:59:01;6.00;;;1.35;;
73454;SDS011;61690;51.824;6.306;2023-12-22T14:01:27;6.95;;;1.70;;
73454;SDS011;61690;51.824;6.306;2023-12-22T14:03:53;6.97;;;1.37;;
73454;SDS011;61690;51.824;6.306;2023-12-22T14:06:18;5.63;;;1.20;;
73454;SDS011;61690;51.824;6.306;2023-12-22T14:08:44;6.20;;;1.30;;
73454;SDS011;61690;51.824;6.306;2023-12-22T14:11:09;7.43;;;1.50;;
73454;SDS011;61690;51.824;6.306;2023-12-22T14:13:34;5.93;;;1.47;;
73454;SDS011;61690;51.824;6.306;2023-12-22T14:16:05;5.88;;;1.20;;
73454;SDS011;61690;51.824;6.306;2023-12-22T14:18:31;7.53;;;1.90;;
73454;SDS011;61690;51.824;6.306;2023-12-22T14:20:57;6.53;;;1.60;;
73454;SDS011;61690;51.824;6.306;2023-12-22T14:23:23;6.13;;;1.50;;
73454;SDS011;61690;51.824;6.306;2023-12-22T14:25:49;5.87;;;1.80;;
73454;SDS011;61690;51.824;6.306;2023-12-22T14:28:14;6.30;;;1.60;;
73454;SDS011;61690;51.824;6.306;2023-12-22T14:30:39;5.10;;;1.50;;
73454;SDS011;61690;51.824;6.306;2023-12-22T14:33:04;7.57;;;1.40;;
73454;SDS011;61690;51.824;6.306;2023-12-22T14:35:30;6.03;;;1.63;;
73454;SDS011;61690;51.824;6.306;2023-12-22T14:37:55;8.27;;;1.47;;
73454;SDS011;61690;51.824;6.306;2023-12-22T14:40:20;5.30;;;1.30;;
73454;SDS011;61690;51.824;6.306;2023-12-22T14:42:45;5.10;;;1.03;;
73454;SDS011;61690;51.824;6.306;2023-12-22T14:45:11;5.37;;;1.20;;
73454;SDS011;61690;51.824;6.306;2023-12-22T14:47:36;6.93;;;1.57;;
73454;SDS011;61690;51.824;6.306;2023-12-22T14:50:02;5.53;;;1.27;;
73454;SDS011;61690;51.824;6.306;2023-12-22T14:52:30;7.68;;;1.67;;
73454;SDS011;61690;51.824;6.306;2023-12-22T14:55:00;6.53;;;1.60;;